createdAt,value
2019-03-20T00:02:10.049Z,9.53
2019-03-20T00:04:37.424Z,9.87
2019-03-20T00:07:04.837Z,9.73
2019-03-20T00:09:32.221Z,10.67
2019-03-20T00:11:59.633Z,9.83
2019-03-20T00:14:27.013Z,9.90
2019-03-20T00:16:54.526Z,11.50
2019-03-20T00:19:21.889Z,10.40
2019-03-20T00:21:49.302Z,9.50
2019-03-20T00:24:16.683Z,9.77
2019-03-20T00:26:44.158Z,8.80
2019-03-20T00:29:11.533Z,9.50
2019-03-20T00:31:38.954Z,10.80
2019-03-20T00:34:06.343Z,10.37
2019-03-20T00:36:33.758Z,9.40
2019-03-20T00:39:01.136Z,10.63
2019-03-20T00:41:28.556Z,9.50
2019-03-20T00:43:55.929Z,9.50
2019-03-20T00:46:23.353Z,10.33
2019-03-20T00:48:50.741Z,10.37
2019-03-20T00:51:18.150Z,9.63
2019-03-20T00:53:45.540Z,9.27
2019-03-20T00:56:12.950Z,11.87
2019-03-20T00:58:40.343Z,11.07
2019-03-20T01:01:07.824Z,12.00
2019-03-20T01:03:35.220Z,12.10
2019-03-20T01:06:02.604Z,11.13
2019-03-20T01:08:30.898Z,10.70
2019-03-20T01:10:58.284Z,8.80
2019-03-20T01:13:25.695Z,9.10
2019-03-20T01:15:53.088Z,9.77
2019-03-20T01:18:22.406Z,9.53
2019-03-20T01:20:49.541Z,10.10
2019-03-20T01:23:16.955Z,10.90
2019-03-20T01:25:44.341Z,9.67
2019-03-20T01:28:11.756Z,10.43
2019-03-20T01:30:41.876Z,11.63
2019-03-20T01:33:12.239Z,10.50
2019-03-20T01:35:39.951Z,11.60
2019-03-20T01:38:07.678Z,11.93
2019-03-20T01:40:35.238Z,10.70
2019-03-20T01:43:02.720Z,13.37
2019-03-20T01:45:30.180Z,11.13
2019-03-20T01:47:57.606Z,11.30
2019-03-20T01:50:24.988Z,12.10
2019-03-20T01:52:52.404Z,9.60
2019-03-20T01:55:19.786Z,9.57
2019-03-20T01:57:47.277Z,10.07
2019-03-20T02:00:14.921Z,10.90
2019-03-20T02:02:42.408Z,10.60
2019-03-20T02:05:09.861Z,9.83
2019-03-20T02:07:37.276Z,9.90
2019-03-20T02:10:09.164Z,10.20
2019-03-20T02:12:36.594Z,10.17
2019-03-20T02:15:05.968Z,10.58
2019-03-20T02:17:33.377Z,10.50
2019-03-20T02:20:00.757Z,8.90
2019-03-20T02:22:28.181Z,10.97
2019-03-20T02:24:55.581Z,10.40
2019-03-20T02:27:22.983Z,12.93
2019-03-20T02:29:50.360Z,10.77
2019-03-20T02:32:17.786Z,10.30
2019-03-20T02:34:45.174Z,11.13
2019-03-20T02:37:12.700Z,10.30
2019-03-20T02:39:40.085Z,10.03
2019-03-20T02:42:07.502Z,9.13
2019-03-20T02:44:34.886Z,9.10
2019-03-20T02:47:02.282Z,10.50
2019-03-20T02:49:29.696Z,9.80
2019-03-20T02:51:57.076Z,8.67
2019-03-20T02:54:24.488Z,9.70
2019-03-20T02:56:51.873Z,9.80
2019-03-20T02:59:19.288Z,8.60
2019-03-20T03:01:46.738Z,9.87
2019-03-20T03:04:14.146Z,9.60
2019-03-20T03:06:41.534Z,9.60
2019-03-20T03:09:08.948Z,10.23
2019-03-20T03:11:36.331Z,9.98
2019-03-20T03:14:03.830Z,11.23
2019-03-20T03:16:31.297Z,9.93
2019-03-20T03:18:58.693Z,9.20
2019-03-20T03:21:26.075Z,9.43
2019-03-20T03:23:53.491Z,9.30
2019-03-20T03:26:20.872Z,8.80
2019-03-20T03:28:48.282Z,8.30
2019-03-20T03:31:15.680Z,8.70
2019-03-20T03:33:43.078Z,9.60
2019-03-20T03:36:20.519Z,8.50
2019-03-20T03:38:39.532Z,9.03
2019-03-20T03:41:06.994Z,9.10
2019-03-20T03:43:34.420Z,10.03
2019-03-20T03:46:01.802Z,10.00
2019-03-20T03:48:29.218Z,10.23
2019-03-20T03:50:56.597Z,8.37
2019-03-20T03:53:24.009Z,8.00
2019-03-20T03:55:51.387Z,9.10
2019-03-20T03:58:19.156Z,8.33
2019-03-20T04:00:46.544Z,9.10
2019-03-20T04:03:13.936Z,10.53
2019-03-20T04:05:41.354Z,9.70
2019-03-20T04:08:08.735Z,9.80
2019-03-20T04:10:36.149Z,9.37
2019-03-20T04:13:03.594Z,8.63
2019-03-20T04:15:31.017Z,9.10
2019-03-20T04:17:58.407Z,9.63
2019-03-20T04:20:25.827Z,10.10
2019-03-20T04:22:53.209Z,9.20
2019-03-20T04:25:20.654Z,9.07
2019-03-20T04:27:48.018Z,9.00
2019-03-20T04:30:15.926Z,9.03
2019-03-20T04:32:43.305Z,9.20
2019-03-20T04:35:10.859Z,9.20
2019-03-20T04:37:38.273Z,9.57
2019-03-20T04:40:07.566Z,17.43
2019-03-20T04:42:34.956Z,12.60
2019-03-20T04:45:02.364Z,9.10
2019-03-20T04:47:29.756Z,9.03
2019-03-20T04:49:57.166Z,8.57
2019-03-20T04:52:24.550Z,8.60
2019-03-20T04:54:51.964Z,7.23
2019-03-20T04:57:19.353Z,7.70
2019-03-20T04:59:46.783Z,8.20
2019-03-20T05:02:14.163Z,7.90
2019-03-20T05:04:41.576Z,8.47
2019-03-20T05:07:08.969Z,7.70
2019-03-20T05:09:36.369Z,8.23
2019-03-20T05:12:03.831Z,7.87
2019-03-20T05:14:31.236Z,6.97
2019-03-20T05:16:58.626Z,5.80
2019-03-20T05:19:26.061Z,5.80
2019-03-20T05:21:53.444Z,5.93
2019-03-20T05:24:20.827Z,7.00
2019-03-20T05:26:48.302Z,8.10
2019-03-20T05:29:15.688Z,8.43
2019-03-20T05:31:43.125Z,7.97
2019-03-20T05:34:10.506Z,8.00
2019-03-20T05:36:38.130Z,9.67
2019-03-20T05:39:06.390Z,8.33
2019-03-20T05:41:33.924Z,10.30
2019-03-20T05:44:01.331Z,9.77
2019-03-20T05:46:28.757Z,9.85
2019-03-20T05:48:56.151Z,10.20
2019-03-20T05:51:23.579Z,9.67
2019-03-20T05:53:50.973Z,9.07
2019-03-20T05:56:18.423Z,8.83
2019-03-20T05:58:45.796Z,16.20
2019-03-20T06:01:13.237Z,31.40
2019-03-20T06:03:40.641Z,10.20
2019-03-20T06:06:08.073Z,7.93
2019-03-20T06:08:35.473Z,8.17
2019-03-20T06:11:02.886Z,8.43
2019-03-20T06:13:30.280Z,8.50
2019-03-20T06:15:57.690Z,7.60
2019-03-20T06:18:25.074Z,8.30
2019-03-20T06:20:52.559Z,7.40
2019-03-20T06:23:19.952Z,7.20
2019-03-20T06:25:47.361Z,7.60
2019-03-20T06:28:14.746Z,7.93
2019-03-20T06:30:42.157Z,8.10
2019-03-20T06:33:09.550Z,7.58
2019-03-20T06:35:36.942Z,6.87
2019-03-20T06:38:04.362Z,7.70
2019-03-20T06:40:31.759Z,7.97
2019-03-20T06:42:59.168Z,7.70
2019-03-20T06:45:26.551Z,6.97
2019-03-20T06:47:53.966Z,7.97
2019-03-20T06:50:22.143Z,6.70
2019-03-20T06:52:49.552Z,31.73
2019-03-20T06:55:16.941Z,9.50
2019-03-20T06:57:44.425Z,7.90
2019-03-20T07:00:30.154Z,6.27
2019-03-20T07:02:58.231Z,6.40
2019-03-20T07:05:30.145Z,6.53
2019-03-20T07:07:57.483Z,6.43
2019-03-20T07:10:41.624Z,6.67
2019-03-20T07:13:09.051Z,6.50
2019-03-20T07:15:36.878Z,7.55
2019-03-20T07:18:04.371Z,6.87
2019-03-20T07:20:31.762Z,7.00
2019-03-20T07:22:59.184Z,7.23
2019-03-20T07:25:26.781Z,7.13
2019-03-20T07:27:54.178Z,7.10
2019-03-20T07:30:21.645Z,8.30
2019-03-20T07:32:49.077Z,7.33
2019-03-20T07:35:16.546Z,8.50
2019-03-20T07:37:43.941Z,8.03
2019-03-20T07:40:11.425Z,8.80
2019-03-20T07:42:38.858Z,9.40
2019-03-20T07:45:07.903Z,9.13
2019-03-20T07:47:35.300Z,7.87
2019-03-20T07:50:02.729Z,8.47
2019-03-20T07:52:30.142Z,9.17
2019-03-20T07:54:57.522Z,8.67
2019-03-20T07:57:25.100Z,8.57
2019-03-20T07:59:52.440Z,9.00
2019-03-20T08:02:19.862Z,7.80
2019-03-20T08:04:47.246Z,8.47
2019-03-20T08:07:14.653Z,8.50
2019-03-20T08:09:42.040Z,7.80
2019-03-20T08:12:09.462Z,7.63
2019-03-20T08:14:36.844Z,8.20
2019-03-20T08:17:04.336Z,8.60
2019-03-20T08:19:31.866Z,7.73
2019-03-20T08:21:59.197Z,7.73
2019-03-20T08:24:26.610Z,8.23
2019-03-20T08:26:53.995Z,8.50
2019-03-20T08:29:21.400Z,7.90
2019-03-20T08:31:48.781Z,8.60
2019-03-20T08:34:17.366Z,8.00
2019-03-20T08:36:44.697Z,8.20
2019-03-20T08:39:12.109Z,7.60
2019-03-20T08:41:41.483Z,7.80
2019-03-20T08:44:08.609Z,8.57
2019-03-20T08:46:36.080Z,8.63
2019-03-20T08:49:03.651Z,7.90
2019-03-20T08:51:31.068Z,7.73
2019-03-20T08:53:58.491Z,8.27
2019-03-20T08:56:25.929Z,8.90
2019-03-20T08:58:53.374Z,7.90
2019-03-20T09:01:28.413Z,6.60
2019-03-20T09:03:49.797Z,8.00
2019-03-20T09:06:17.185Z,7.13
2019-03-20T09:08:44.618Z,6.97
2019-03-20T09:11:12.002Z,6.97
2019-03-20T09:13:39.470Z,5.97
2019-03-20T09:16:06.970Z,17.13
2019-03-20T09:18:34.369Z,17.63
2019-03-20T09:21:01.890Z,7.27
2019-03-20T09:23:29.464Z,7.60
2019-03-20T09:25:56.930Z,7.37
2019-03-20T09:28:24.337Z,7.20
2019-03-20T09:30:51.719Z,5.90
2019-03-20T09:33:19.136Z,6.60
2019-03-20T09:35:46.527Z,6.53
2019-03-20T09:38:13.934Z,6.23
2019-03-20T09:40:41.318Z,6.77
2019-03-20T09:43:08.730Z,5.70
2019-03-20T09:45:36.121Z,6.13
2019-03-20T09:48:03.509Z,5.47
2019-03-20T09:50:30.976Z,6.30
2019-03-20T09:52:58.318Z,5.23
2019-03-20T09:55:25.779Z,6.20
2019-03-20T09:57:53.102Z,6.23
2019-03-20T10:00:21.583Z,5.93
2019-03-20T10:02:48.971Z,4.70
2019-03-20T10:05:16.452Z,5.57
2019-03-20T10:07:43.831Z,6.17
2019-03-20T10:10:12.719Z,5.93
2019-03-20T10:12:40.146Z,5.70
2019-03-20T10:15:09.094Z,7.20
2019-03-20T10:17:36.555Z,6.27
2019-03-20T10:20:06.242Z,6.05
2019-03-20T10:22:33.663Z,5.33
2019-03-20T10:25:01.052Z,5.73
2019-03-20T10:27:28.434Z,6.20
2019-03-20T10:29:55.851Z,5.10
2019-03-20T10:32:23.281Z,6.47
2019-03-20T10:34:50.724Z,5.50
2019-03-20T10:37:18.151Z,6.30
2019-03-20T10:39:45.608Z,4.77
2019-03-20T10:42:13.037Z,5.50
2019-03-20T10:44:40.491Z,4.13
2019-03-20T10:47:07.913Z,5.00
2019-03-20T10:49:35.360Z,5.17
2019-03-20T10:52:02.776Z,6.03
2019-03-20T10:54:30.230Z,4.83
2019-03-20T10:56:57.659Z,4.93
2019-03-20T10:59:25.116Z,4.90
2019-03-20T11:01:52.529Z,3.80
2019-03-20T11:04:19.987Z,3.10
2019-03-20T11:06:47.400Z,3.57
2019-03-20T11:09:18.426Z,2.93
2019-03-20T11:11:43.911Z,6.87
2019-03-20T11:14:11.381Z,7.27
2019-03-20T11:16:38.800Z,2.83
2019-03-20T11:19:06.286Z,2.27
2019-03-20T11:21:33.770Z,3.17
2019-03-20T11:24:01.204Z,4.23
2019-03-20T11:26:28.658Z,3.60
2019-03-20T11:28:56.080Z,3.90
2019-03-20T11:31:23.533Z,3.93
2019-03-20T11:33:50.956Z,5.20
2019-03-20T11:36:18.410Z,4.87
2019-03-20T11:38:45.834Z,5.50
2019-03-20T11:41:13.278Z,4.50
2019-03-20T11:43:40.698Z,3.77
2019-03-20T11:46:08.157Z,4.70
2019-03-20T11:48:35.567Z,4.50
2019-03-20T11:51:03.021Z,5.03
2019-03-20T11:53:30.501Z,5.07
2019-03-20T11:55:57.948Z,4.80
2019-03-20T11:58:25.360Z,5.13
2019-03-20T12:00:52.820Z,4.57
2019-03-20T12:03:20.230Z,4.70
2019-03-20T12:05:47.689Z,4.97
2019-03-20T12:08:15.138Z,4.10
2019-03-20T12:10:42.684Z,4.40
2019-03-20T12:13:10.153Z,4.70
2019-03-20T12:15:37.669Z,4.07
2019-03-20T12:18:05.202Z,4.27
2019-03-20T12:20:32.614Z,5.30
2019-03-20T12:23:00.038Z,4.50
2019-03-20T12:25:29.027Z,4.20
2019-03-20T12:27:56.509Z,5.63
2019-03-20T12:30:31.528Z,4.15
2019-03-20T12:32:58.948Z,4.43
2019-03-20T12:35:27.359Z,4.67
2019-03-20T12:37:54.845Z,3.83
2019-03-20T12:40:25.817Z,5.47
2019-03-20T12:42:53.301Z,4.50
2019-03-20T12:45:24.745Z,5.50
2019-03-20T12:47:52.154Z,4.13
2019-03-20T12:50:19.609Z,3.70
2019-03-20T12:52:47.023Z,3.57
2019-03-20T12:55:15.349Z,6.10
2019-03-20T12:57:42.833Z,3.47
2019-03-20T13:00:11.865Z,3.40
2019-03-20T13:02:39.407Z,3.20
2019-03-20T13:05:08.721Z,3.70
2019-03-20T13:07:36.141Z,3.30
2019-03-20T13:10:05.350Z,3.35
2019-03-20T13:12:32.770Z,4.03
2019-03-20T13:15:00.380Z,2.40
2019-03-20T13:17:27.838Z,3.20
2019-03-20T13:19:55.258Z,3.43
2019-03-20T13:22:22.717Z,4.20
2019-03-20T13:24:50.133Z,3.20
2019-03-20T13:27:17.578Z,2.83
2019-03-20T13:29:44.996Z,3.17
2019-03-20T13:32:12.431Z,3.73
2019-03-20T13:34:39.858Z,3.40
2019-03-20T13:37:07.300Z,3.33
2019-03-20T13:39:34.724Z,2.17
2019-03-20T13:42:02.181Z,2.37
2019-03-20T13:44:29.600Z,2.50
2019-03-20T13:46:57.056Z,2.73
2019-03-20T13:49:24.476Z,3.90
2019-03-20T13:51:51.931Z,2.60
2019-03-20T13:54:19.354Z,2.60
2019-03-20T13:56:46.804Z,3.20
2019-03-20T13:59:14.225Z,2.47
2019-03-20T14:01:41.675Z,2.90
2019-03-20T14:04:09.093Z,2.37
2019-03-20T14:06:36.544Z,2.50
2019-03-20T14:09:05.836Z,2.63
2019-03-20T14:11:33.280Z,2.03
2019-03-20T14:14:00.704Z,3.00
2019-03-20T14:16:28.149Z,2.43
2019-03-20T14:18:55.574Z,3.10
2019-03-20T14:21:23.038Z,3.37
2019-03-20T14:23:50.458Z,2.77
2019-03-20T14:26:17.905Z,3.03
2019-03-20T14:28:45.328Z,1.90
2019-03-20T14:31:12.765Z,2.23
2019-03-20T14:33:40.179Z,2.60
2019-03-20T14:36:07.625Z,3.00
2019-03-20T14:38:35.050Z,2.80
2019-03-20T14:41:02.488Z,2.20
2019-03-20T14:43:29.932Z,3.10
2019-03-20T14:45:57.341Z,2.40
2019-03-20T14:48:24.785Z,2.90
2019-03-20T14:50:52.217Z,39.77
2019-03-20T14:53:19.669Z,3.23
2019-03-20T14:55:47.090Z,3.07
2019-03-20T14:58:14.535Z,3.10
2019-03-20T15:00:41.961Z,3.33
2019-03-20T15:03:09.412Z,2.30
2019-03-20T15:05:36.833Z,3.23
2019-03-20T15:08:04.348Z,2.37
2019-03-20T15:10:31.778Z,2.47
2019-03-20T15:12:59.296Z,3.17
2019-03-20T15:15:31.058Z,2.73
2019-03-20T15:17:58.507Z,1.70
2019-03-20T15:20:25.928Z,2.60
2019-03-20T15:22:53.441Z,2.00
2019-03-20T15:25:20.866Z,1.83
2019-03-20T15:27:48.314Z,2.23
2019-03-20T15:30:17.272Z,3.00
2019-03-20T15:32:44.720Z,2.30
2019-03-20T15:35:12.204Z,1.95
2019-03-20T15:37:39.652Z,1.90
2019-03-20T15:40:08.619Z,1.90
2019-03-20T15:42:36.057Z,2.30
2019-03-20T15:45:04.555Z,1.93
2019-03-20T15:47:31.996Z,2.00
2019-03-20T15:49:59.418Z,2.20
2019-03-20T15:52:26.863Z,2.23
2019-03-20T15:54:54.281Z,2.47
2019-03-20T15:57:21.720Z,2.30
2019-03-20T15:59:49.149Z,2.50
2019-03-20T16:02:16.601Z,2.37
2019-03-20T16:04:44.025Z,1.50
2019-03-20T16:07:11.472Z,3.40
2019-03-20T16:09:38.892Z,2.20
2019-03-20T16:12:06.343Z,2.23
2019-03-20T16:14:33.761Z,2.80
2019-03-20T16:17:01.221Z,2.67
2019-03-20T16:19:28.642Z,26.00
2019-03-20T16:21:56.061Z,2.80
2019-03-20T16:24:23.504Z,1.97
2019-03-20T16:26:50.932Z,2.47
2019-03-20T16:29:18.370Z,2.50
2019-03-20T16:31:45.792Z,2.83
2019-03-20T16:34:13.250Z,2.97
2019-03-20T16:36:40.673Z,2.60
2019-03-20T16:39:08.296Z,3.10
2019-03-20T16:41:35.727Z,3.00
2019-03-20T16:44:03.244Z,2.73
2019-03-20T16:46:30.664Z,2.60
2019-03-20T16:48:58.104Z,2.80
2019-03-20T16:51:25.527Z,2.70
2019-03-20T16:53:52.968Z,2.20
2019-03-20T16:56:20.394Z,2.60
2019-03-20T16:58:47.847Z,2.57
2019-03-20T17:01:15.292Z,2.77
2019-03-20T17:03:42.722Z,1.80
2019-03-20T17:06:10.118Z,2.20
2019-03-20T17:08:37.561Z,2.83
2019-03-20T17:11:05.090Z,3.20
2019-03-20T17:13:32.537Z,2.20
2019-03-20T17:15:59.972Z,3.07
2019-03-20T17:18:27.418Z,2.57
2019-03-20T17:20:54.846Z,3.00
2019-03-20T17:23:22.310Z,2.10
2019-03-20T17:25:49.713Z,2.43
2019-03-20T17:28:17.173Z,2.50
2019-03-20T17:30:45.655Z,2.33
2019-03-20T17:33:13.110Z,2.23
2019-03-20T17:35:40.529Z,2.13
2019-03-20T17:38:07.953Z,2.43
2019-03-20T17:40:35.400Z,2.63
2019-03-20T17:43:02.896Z,2.53
2019-03-20T17:45:30.701Z,2.23
2019-03-20T17:47:58.201Z,2.43
2019-03-20T17:50:27.184Z,2.63
2019-03-20T17:52:54.678Z,2.23
2019-03-20T17:55:22.191Z,2.27
2019-03-20T17:57:49.600Z,2.50
2019-03-20T18:00:19.566Z,3.23
2019-03-20T18:02:46.981Z,8.37
2019-03-20T18:05:14.496Z,2.30
2019-03-20T18:07:41.916Z,2.80
2019-03-20T18:10:09.348Z,2.67
2019-03-20T18:12:36.778Z,2.57
2019-03-20T18:15:05.753Z,3.10
2019-03-20T18:17:33.177Z,2.53
2019-03-20T18:20:00.633Z,1.80
2019-03-20T18:22:28.053Z,2.40
2019-03-20T18:24:55.497Z,3.50
2019-03-20T18:27:22.921Z,2.73
2019-03-20T18:29:50.368Z,3.90
2019-03-20T18:32:17.801Z,4.30
2019-03-20T18:34:45.249Z,4.90
2019-03-20T18:37:12.670Z,4.40
2019-03-20T18:39:40.122Z,5.37
2019-03-20T18:42:09.533Z,6.40
2019-03-20T18:44:36.644Z,6.63
2019-03-20T18:47:04.072Z,7.63
2019-03-20T18:49:31.523Z,7.33
2019-03-20T18:51:58.895Z,6.40
2019-03-20T18:54:26.322Z,6.87
2019-03-20T18:56:53.701Z,4.93
2019-03-20T18:59:21.113Z,4.90
2019-03-20T19:01:48.500Z,4.67
2019-03-20T19:04:15.914Z,4.53
2019-03-20T19:06:43.298Z,4.30
2019-03-20T19:09:10.683Z,4.23
2019-03-20T19:11:38.099Z,4.00
2019-03-20T19:14:05.565Z,3.60
2019-03-20T19:16:32.984Z,2.67
2019-03-20T19:19:00.375Z,4.00
2019-03-20T19:21:27.789Z,3.70
2019-03-20T19:23:55.170Z,2.60
2019-03-20T19:26:22.582Z,2.80
2019-03-20T19:28:49.957Z,3.10
2019-03-20T19:31:17.379Z,2.67
2019-03-20T19:33:44.762Z,3.70
2019-03-20T19:36:12.241Z,2.53
2019-03-20T19:38:39.624Z,3.27
2019-03-20T19:41:08.822Z,3.53
2019-03-20T19:43:36.088Z,3.00
2019-03-20T19:46:03.571Z,3.30
2019-03-20T19:48:30.962Z,3.83
2019-03-20T19:50:58.364Z,3.10
2019-03-20T19:53:25.751Z,3.00
2019-03-20T19:55:53.174Z,4.17
2019-03-20T19:58:20.551Z,3.60
2019-03-20T20:00:47.950Z,3.23
2019-03-20T20:03:15.337Z,3.80
2019-03-20T20:05:42.749Z,3.30
2019-03-20T20:08:10.195Z,4.20
2019-03-20T20:10:37.620Z,11.03
2019-03-20T20:13:04.993Z,8.97
2019-03-20T20:15:35.284Z,8.80
2019-03-20T20:18:02.737Z,7.43
2019-03-20T20:20:31.688Z,7.17
2019-03-20T20:22:59.071Z,6.10
2019-03-20T20:25:26.604Z,6.20
2019-03-20T20:27:53.994Z,6.83
2019-03-20T20:30:21.454Z,6.57
2019-03-20T20:32:48.865Z,9.67
2019-03-20T20:35:16.723Z,10.25
2019-03-20T20:37:44.809Z,15.00
2019-03-20T20:40:16.439Z,16.43
2019-03-20T20:42:43.846Z,20.80
2019-03-20T20:45:11.403Z,12.83
2019-03-20T20:47:38.817Z,10.40
2019-03-20T20:50:07.470Z,9.57
2019-03-20T20:52:34.883Z,9.27
2019-03-20T20:55:02.364Z,10.03
2019-03-20T20:57:29.771Z,7.70
2019-03-20T20:59:57.157Z,7.20
2019-03-20T21:02:24.602Z,7.97
2019-03-20T21:04:51.964Z,7.90
2019-03-20T21:07:19.376Z,6.27
2019-03-20T21:09:46.765Z,8.57
2019-03-20T21:12:14.178Z,11.00
2019-03-20T21:14:41.574Z,12.93
2019-03-20T21:17:10.863Z,12.33
2019-03-20T21:19:38.253Z,6.37
2019-03-20T21:22:10.252Z,6.37
2019-03-20T21:24:37.638Z,6.40
2019-03-20T21:27:06.603Z,6.27
2019-03-20T21:29:51.961Z,7.30
2019-03-20T21:32:23.879Z,5.70
2019-03-20T21:35:09.638Z,5.60
2019-03-20T21:37:53.668Z,6.30
2019-03-20T21:40:21.117Z,5.90
2019-03-20T21:43:08.118Z,7.47
2019-03-20T21:45:42.772Z,7.00
2019-03-20T21:48:10.194Z,7.30
2019-03-20T21:50:51.331Z,6.67
2019-03-20T21:53:20.277Z,7.00
2019-03-20T21:56:05.733Z,7.00
2019-03-20T21:58:34.564Z,6.70
2019-03-20T22:01:03.495Z,6.90
2019-03-20T22:03:30.921Z,6.50
2019-03-20T22:06:02.746Z,7.07
2019-03-20T22:08:30.162Z,6.37
2019-03-20T22:10:59.089Z,7.20
2019-03-20T22:13:30.821Z,8.67
2019-03-20T22:16:02.735Z,8.50
2019-03-20T22:18:48.326Z,11.43
2019-03-20T22:21:35.621Z,12.23
2019-03-20T22:24:04.576Z,12.73
2019-03-20T22:26:42.309Z,10.53
2019-03-20T22:29:11.278Z,10.80
2019-03-20T22:31:40.195Z,10.80
2019-03-20T22:34:24.360Z,12.20
2019-03-20T22:36:52.223Z,11.60
2019-03-20T22:39:37.640Z,11.63
2019-03-20T22:42:06.565Z,11.40
2019-03-20T22:44:34.750Z,11.10
2019-03-20T22:47:20.268Z,11.60
2019-03-20T22:50:07.510Z,10.60
2019-03-20T22:52:48.498Z,11.70
2019-03-20T22:55:17.435Z,10.83
2019-03-20T22:57:58.213Z,10.80
2019-03-20T23:00:26.047Z,10.32
2019-03-20T23:02:55.026Z,9.20
2019-03-20T23:05:22.425Z,10.10
2019-03-20T23:07:49.943Z,8.47
2019-03-20T23:10:17.394Z,8.57
2019-03-20T23:12:44.873Z,9.20
2019-03-20T23:15:13.800Z,8.23
2019-03-20T23:17:41.188Z,9.23
2019-03-20T23:20:10.154Z,9.73
2019-03-20T23:22:37.534Z,9.03
2019-03-20T23:25:06.498Z,8.53
2019-03-20T23:27:33.885Z,8.83
2019-03-20T23:30:01.303Z,8.33
2019-03-20T23:32:28.675Z,8.43
2019-03-20T23:34:56.186Z,7.93
2019-03-20T23:37:23.541Z,8.40
2019-03-20T23:39:50.951Z,8.30
2019-03-20T23:42:18.341Z,7.90
2019-03-20T23:44:45.755Z,8.50
2019-03-20T23:47:13.148Z,8.97
2019-03-20T23:49:40.563Z,7.90
2019-03-20T23:52:08.159Z,30.37
2019-03-20T23:54:40.110Z,53.70
2019-03-20T23:57:07.514Z,43.73
2019-03-20T23:59:34.925Z,36.03
